createdAt,value
2022-12-08T00:01:27.668Z,17.13
2022-12-08T00:03:56.370Z,15.50
2022-12-08T00:07:08.557Z,14.27
2022-12-08T00:09:41.614Z,14.17
2022-12-08T00:12:15.407Z,14.93
2022-12-08T00:14:47.718Z,16.43
2022-12-08T00:17:16.743Z,17.03
2022-12-08T00:19:44.571Z,15.97
2022-12-08T00:22:12.844Z,17.17
2022-12-08T00:24:41.454Z,16.17
2022-12-08T00:27:10.974Z,13.70
2022-12-08T00:29:38.170Z,15.30
2022-12-08T00:32:06.158Z,15.27
2022-12-08T00:34:34.084Z,14.80
2022-12-08T00:37:01.071Z,15.30
2022-12-08T00:39:28.017Z,14.17
2022-12-08T00:42:12.907Z,14.23
2022-12-08T00:44:42.271Z,13.03
2022-12-08T00:47:11.792Z,18.23
2022-12-08T00:49:38.826Z,15.07
2022-12-08T00:52:05.779Z,16.13
2022-12-08T00:54:32.857Z,17.83
2022-12-08T00:56:59.898Z,15.00
2022-12-08T00:59:26.867Z,14.90
2022-12-08T01:01:53.839Z,13.83
2022-12-08T01:04:21.144Z,14.23
2022-12-08T01:06:48.656Z,14.07
2022-12-08T01:09:17.066Z,12.67
2022-12-08T01:11:47.288Z,13.10
2022-12-08T01:14:14.585Z,13.30
2022-12-08T01:16:41.750Z,11.53
2022-12-08T01:19:12.398Z,14.00
2022-12-08T01:21:40.351Z,13.70
2022-12-08T01:24:09.503Z,12.20
2022-12-08T01:26:36.476Z,12.70
2022-12-08T01:29:03.478Z,10.67
2022-12-08T01:31:30.480Z,12.40
2022-12-08T01:33:58.687Z,10.83
2022-12-08T01:36:28.935Z,10.80
2022-12-08T01:38:59.842Z,14.20
2022-12-08T01:41:30.954Z,11.33
2022-12-08T01:44:04.960Z,13.77
2022-12-08T01:46:33.453Z,14.27
2022-12-08T01:49:31.089Z,15.13
2022-12-08T01:52:09.913Z,14.80
2022-12-08T01:54:46.744Z,13.43
2022-12-08T01:57:31.019Z,14.37
2022-12-08T02:00:14.495Z,12.40
2022-12-08T02:03:01.335Z,13.27
2022-12-08T02:05:38.300Z,15.47
2022-12-08T02:08:10.111Z,14.53
2022-12-08T02:10:41.319Z,14.43
2022-12-08T02:13:15.298Z,16.63
2022-12-08T02:16:12.407Z,12.87
2022-12-08T02:19:29.077Z,14.20
2022-12-08T02:22:06.866Z,12.93
2022-12-08T02:24:55.409Z,16.60
2022-12-08T02:27:47.700Z,13.67
2022-12-08T02:31:05.549Z,16.90
2022-12-08T02:34:03.648Z,13.73
2022-12-08T02:37:07.156Z,10.70
2022-12-08T02:40:15.389Z,15.80
2022-12-08T02:42:58.055Z,15.00
2022-12-08T02:45:39.066Z,11.80
2022-12-08T02:48:06.753Z,12.53
2022-12-08T02:50:33.860Z,10.87
2022-12-08T02:53:02.655Z,13.27
2022-12-08T02:55:42.894Z,13.27
2022-12-08T02:58:35.489Z,11.90
2022-12-08T03:02:02.699Z,11.20
2022-12-08T03:04:54.600Z,14.30
2022-12-08T03:07:40.565Z,13.43
2022-12-08T03:10:28.141Z,13.90
2022-12-08T03:13:04.460Z,12.07
2022-12-08T03:15:32.273Z,11.70
2022-12-08T03:18:00.974Z,15.87
2022-12-08T03:20:31.384Z,13.57
2022-12-08T03:23:02.238Z,10.80
2022-12-08T03:25:37.156Z,11.67
2022-12-08T03:28:05.321Z,12.93
2022-12-08T03:30:37.383Z,11.90
2022-12-08T03:33:13.814Z,11.80
2022-12-08T03:35:41.764Z,11.40
2022-12-08T03:38:13.411Z,13.00
2022-12-08T03:40:41.745Z,10.67
2022-12-08T03:43:08.914Z,12.50
2022-12-08T03:45:36.327Z,12.50
2022-12-08T03:48:03.788Z,10.47
2022-12-08T03:50:30.732Z,16.00
2022-12-08T03:52:57.678Z,12.40
2022-12-08T03:55:24.975Z,12.03
2022-12-08T03:57:51.883Z,11.40
2022-12-08T04:00:19.488Z,16.03
2022-12-08T04:02:46.606Z,10.30
2022-12-08T04:05:13.689Z,12.60
2022-12-08T04:07:40.585Z,10.97
2022-12-08T04:10:08.463Z,11.97
2022-12-08T04:12:35.401Z,15.97
2022-12-08T04:15:02.372Z,18.80
2022-12-08T04:17:29.325Z,12.43
2022-12-08T04:19:56.299Z,13.60
2022-12-08T04:22:23.327Z,14.23
2022-12-08T04:24:50.934Z,13.57
2022-12-08T04:27:17.950Z,12.80
2022-12-08T04:29:45.348Z,12.73
2022-12-08T04:32:12.272Z,13.53
2022-12-08T04:34:39.571Z,11.80
2022-12-08T04:37:06.509Z,15.80
2022-12-08T04:39:33.845Z,12.07
2022-12-08T04:42:00.783Z,15.13
2022-12-08T04:44:28.087Z,14.23
2022-12-08T04:46:55.024Z,14.27
2022-12-08T04:49:22.087Z,15.23
2022-12-08T04:51:49.220Z,11.90
2022-12-08T04:54:16.193Z,14.73
2022-12-08T04:56:43.088Z,13.30
2022-12-08T04:59:10.048Z,11.53
2022-12-08T05:01:37.452Z,13.17
2022-12-08T05:04:04.508Z,10.90
2022-12-08T05:06:31.642Z,10.23
2022-12-08T05:08:58.531Z,13.30
2022-12-08T05:11:25.493Z,10.40
2022-12-08T05:13:52.574Z,10.73
2022-12-08T05:16:19.732Z,11.57
2022-12-08T05:18:47.122Z,12.10
2022-12-08T05:21:14.071Z,10.43
2022-12-08T05:23:41.227Z,11.90
2022-12-08T05:26:08.372Z,11.67
2022-12-08T05:28:43.785Z,13.13
2022-12-08T05:31:13.478Z,9.97
2022-12-08T05:33:41.059Z,12.57
2022-12-08T05:36:10.607Z,14.63
2022-12-08T05:38:38.271Z,13.10
2022-12-08T05:41:20.664Z,12.23
2022-12-08T05:43:48.501Z,13.50
2022-12-08T05:46:16.524Z,15.27
2022-12-08T05:48:43.729Z,10.57
2022-12-08T05:51:20.505Z,16.20
2022-12-08T05:53:49.425Z,20.77
2022-12-08T05:56:17.220Z,15.00
2022-12-08T05:58:44.617Z,12.10
2022-12-08T06:01:25.965Z,13.40
2022-12-08T06:03:53.388Z,12.13
2022-12-08T06:06:21.346Z,12.23
2022-12-08T06:08:48.610Z,10.00
2022-12-08T06:11:28.885Z,14.10
2022-12-08T06:13:57.497Z,11.90
2022-12-08T06:16:26.527Z,11.73
2022-12-08T06:18:54.059Z,12.07
2022-12-08T06:21:21.350Z,12.13
2022-12-08T06:23:53.575Z,15.40
2022-12-08T06:26:21.467Z,13.80
2022-12-08T06:28:49.435Z,15.13
2022-12-08T06:31:20.469Z,12.93
2022-12-08T06:33:48.409Z,13.13
2022-12-08T06:36:18.919Z,14.90
2022-12-08T06:38:46.778Z,13.63
2022-12-08T06:41:14.678Z,10.83
2022-12-08T06:43:42.071Z,12.30
2022-12-08T06:46:13.149Z,11.10
2022-12-08T06:48:40.150Z,12.70
2022-12-08T06:51:15.213Z,15.30
2022-12-08T06:53:43.430Z,12.60
2022-12-08T06:56:11.600Z,13.63
2022-12-08T06:58:38.880Z,13.10
2022-12-08T07:01:12.336Z,19.87
2022-12-08T07:03:40.505Z,51.30
2022-12-08T07:06:08.114Z,55.90
2022-12-08T07:08:35.413Z,54.07
2022-12-08T07:11:12.347Z,55.10
2022-12-08T07:13:41.137Z,36.93
2022-12-08T07:16:10.379Z,16.40
2022-12-08T07:18:38.817Z,14.40
2022-12-08T07:21:12.142Z,14.93
2022-12-08T07:23:39.959Z,21.80
2022-12-08T07:26:12.207Z,19.00
2022-12-08T07:28:41.034Z,13.47
2022-12-08T07:31:17.459Z,11.93
2022-12-08T07:33:44.678Z,12.87
2022-12-08T07:36:12.836Z,12.83
2022-12-08T07:38:40.591Z,13.80
2022-12-08T07:41:18.535Z,15.37
2022-12-08T07:43:47.294Z,14.37
2022-12-08T07:46:16.795Z,18.50
2022-12-08T07:48:44.446Z,13.57
2022-12-08T07:51:14.069Z,14.80
2022-12-08T07:53:47.222Z,14.50
2022-12-08T07:56:17.342Z,13.00
2022-12-08T07:58:46.755Z,13.57
2022-12-08T08:01:29.285Z,13.20
2022-12-08T08:04:01.773Z,16.80
2022-12-08T08:06:29.021Z,41.63
2022-12-08T08:08:56.004Z,39.23
2022-12-08T08:11:23.920Z,19.87
2022-12-08T08:13:51.400Z,15.47
2022-12-08T08:16:19.699Z,15.93
2022-12-08T08:18:49.128Z,15.67
2022-12-08T08:24:04.848Z,16.80
2022-12-08T08:26:32.259Z,13.83
2022-12-08T08:28:59.198Z,14.67
2022-12-08T08:31:27.042Z,13.80
2022-12-08T08:33:54.240Z,13.77
2022-12-08T08:36:22.121Z,11.33
2022-12-08T08:38:49.187Z,13.47
2022-12-08T08:41:16.101Z,12.93
2022-12-08T08:43:43.056Z,17.53
2022-12-08T08:46:11.017Z,13.67
2022-12-08T08:48:38.164Z,13.37
2022-12-08T08:51:11.660Z,12.83
2022-12-08T08:53:38.941Z,15.67
2022-12-08T08:56:15.325Z,12.80
2022-12-08T08:58:42.726Z,12.53
2022-12-08T09:01:15.190Z,14.53
2022-12-08T09:03:42.746Z,11.87
2022-12-08T09:06:09.748Z,14.00
2022-12-08T09:08:36.804Z,14.13
2022-12-08T09:11:03.717Z,17.13
2022-12-08T09:13:30.836Z,13.57
2022-12-08T09:15:58.421Z,23.10
2022-12-08T09:18:25.455Z,17.80
2022-12-08T09:20:52.481Z,15.43
2022-12-08T09:23:19.473Z,13.90
2022-12-08T09:25:46.425Z,15.63
2022-12-08T09:28:14.643Z,13.73
2022-12-08T09:30:42.271Z,13.07
2022-12-08T09:33:09.248Z,13.37
2022-12-08T09:35:36.236Z,13.30
2022-12-08T09:38:03.206Z,12.83
2022-12-08T09:40:37.688Z,14.50
2022-12-08T09:43:51.648Z,21.80
2022-12-08T09:46:19.462Z,26.23
2022-12-08T09:48:56.033Z,17.50
2022-12-08T09:51:36.132Z,15.67
2022-12-08T09:54:22.164Z,14.93
2022-12-08T09:56:52.141Z,14.00
2022-12-08T09:59:34.513Z,14.40
2022-12-08T10:02:03.510Z,15.20
2022-12-08T10:04:34.962Z,12.10
2022-12-08T10:07:21.532Z,13.23
2022-12-08T10:10:03.933Z,14.67
2022-12-08T10:13:01.983Z,13.80
2022-12-08T10:15:46.159Z,13.40
2022-12-08T10:18:33.884Z,12.87
2022-12-08T10:21:16.918Z,13.73
2022-12-08T10:23:50.337Z,13.57
2022-12-08T10:26:20.681Z,15.03
2022-12-08T10:28:48.576Z,14.20
2022-12-08T10:31:24.645Z,13.00
2022-12-08T10:34:13.885Z,15.53
2022-12-08T10:37:00.724Z,16.67
2022-12-08T10:39:40.626Z,13.50
2022-12-08T10:42:22.188Z,14.53
2022-12-08T10:44:58.128Z,18.70
2022-12-08T10:47:28.252Z,16.93
2022-12-08T10:50:36.068Z,17.93
2022-12-08T10:53:28.156Z,17.17
2022-12-08T10:56:04.263Z,97.40
2022-12-08T10:58:43.599Z,86.23
2022-12-08T11:01:27.337Z,39.57
2022-12-08T11:04:04.236Z,23.30
2022-12-08T11:06:39.200Z,16.53
2022-12-08T11:09:17.175Z,19.80
2022-12-08T11:11:57.405Z,17.90
2022-12-08T11:15:03.329Z,18.40
2022-12-08T11:17:40.682Z,16.00
2022-12-08T11:20:10.778Z,15.93
2022-12-08T11:22:54.932Z,15.20
2022-12-08T11:25:27.509Z,16.63
2022-12-08T11:27:58.729Z,18.37
2022-12-08T11:30:31.559Z,17.17
2022-12-08T11:33:26.521Z,16.63
2022-12-08T11:36:01.576Z,14.70
2022-12-08T11:38:29.454Z,16.97
2022-12-08T11:41:14.231Z,17.17
2022-12-08T11:44:34.662Z,14.93
2022-12-08T11:47:23.141Z,13.53
2022-12-08T11:50:05.052Z,14.70
2022-12-08T11:52:46.328Z,12.97
2022-12-08T11:55:43.858Z,14.90
2022-12-08T11:58:56.264Z,13.87
2022-12-08T12:01:26.247Z,31.67
2022-12-08T12:04:08.597Z,71.10
2022-12-08T12:06:55.084Z,22.00
2022-12-08T12:09:34.766Z,17.33
2022-12-08T12:12:30.296Z,14.07
2022-12-08T12:15:17.626Z,10.93
2022-12-08T12:18:27.282Z,12.20
2022-12-08T12:21:19.469Z,13.37
2022-12-08T12:23:54.721Z,12.30
2022-12-08T12:26:37.272Z,12.13
2022-12-08T12:29:13.081Z,12.13
2022-12-08T12:31:48.617Z,13.27
2022-12-08T12:34:31.926Z,13.90
2022-12-08T12:37:22.650Z,13.70
2022-12-08T12:40:20.575Z,11.47
2022-12-08T12:42:54.879Z,12.20
2022-12-08T12:45:21.722Z,12.53
2022-12-08T12:48:00.415Z,15.87
2022-12-08T12:50:33.891Z,13.20
2022-12-08T12:53:16.240Z,12.77
2022-12-08T12:55:46.223Z,11.13
2022-12-08T12:58:28.553Z,11.37
2022-12-08T13:01:11.358Z,12.00
2022-12-08T13:03:48.576Z,13.07
2022-12-08T13:06:24.624Z,12.70
2022-12-08T13:08:55.160Z,14.10
2022-12-08T13:11:23.887Z,12.97
2022-12-08T13:14:03.514Z,11.50
2022-12-08T13:16:37.883Z,11.50
2022-12-08T13:19:14.114Z,13.80
2022-12-08T13:21:41.158Z,13.80
2022-12-08T13:24:13.611Z,13.00
2022-12-08T13:26:48.835Z,13.23
2022-12-08T13:29:26.134Z,15.57
2022-12-08T13:32:00.529Z,12.63
2022-12-08T13:34:53.280Z,14.50
2022-12-08T13:37:48.169Z,12.23
2022-12-08T13:40:25.219Z,12.53
2022-12-08T13:43:12.944Z,11.97
2022-12-08T13:49:53.071Z,13.30
2022-12-08T13:55:27.058Z,14.10
2022-12-08T13:57:32.761Z,15.03
2022-12-08T14:00:05.115Z,16.83
2022-12-08T14:02:47.353Z,16.80
2022-12-08T14:05:23.569Z,12.87
2022-12-08T14:07:57.014Z,17.37
2022-12-08T14:10:29.295Z,13.53
2022-12-08T14:13:01.551Z,13.33
2022-12-08T14:15:34.050Z,14.47
2022-12-08T14:18:03.986Z,14.27
2022-12-08T14:20:51.764Z,16.47
2022-12-08T14:23:21.660Z,15.33
2022-12-08T14:25:48.940Z,15.67
2022-12-08T14:28:16.610Z,19.33
2022-12-08T14:30:43.717Z,15.70
2022-12-08T14:33:17.092Z,17.47
2022-12-08T14:35:52.931Z,15.00
2022-12-08T14:38:22.058Z,14.60
2022-12-08T14:41:02.463Z,14.53
2022-12-08T14:43:31.554Z,18.83
2022-12-08T14:46:06.550Z,14.63
2022-12-08T14:48:39.203Z,16.00
2022-12-08T14:51:23.513Z,15.10
2022-12-08T14:54:03.089Z,15.90
2022-12-08T14:56:41.284Z,15.53
2022-12-08T14:59:27.155Z,15.10
2022-12-08T15:02:24.359Z,16.20
2022-12-08T15:05:04.665Z,14.63
2022-12-08T15:07:51.641Z,16.60
2022-12-08T15:10:27.324Z,14.87
2022-12-08T15:13:10.639Z,14.93
2022-12-08T15:15:57.089Z,16.00
2022-12-08T15:18:41.046Z,16.07
2022-12-08T15:21:12.887Z,15.33
2022-12-08T15:23:51.998Z,15.77
2022-12-08T15:26:23.107Z,17.10
2022-12-08T15:28:50.319Z,14.93
2022-12-08T15:31:21.063Z,16.40
2022-12-08T15:33:48.348Z,14.63
2022-12-08T15:36:15.277Z,14.93
2022-12-08T15:38:43.706Z,14.40
2022-12-08T15:41:14.815Z,15.07
2022-12-08T15:43:42.330Z,17.40
2022-12-08T15:46:09.478Z,16.23
2022-12-08T15:48:37.904Z,15.27
2022-12-08T15:51:05.114Z,15.30
2022-12-08T15:53:34.511Z,16.23
2022-12-08T15:58:55.528Z,15.00
2022-12-08T16:01:23.617Z,14.27
2022-12-08T16:07:19.663Z,15.37
2022-12-08T16:09:41.085Z,13.40
2022-12-08T16:13:55.065Z,13.70
2022-12-08T16:18:25.596Z,13.97
2022-12-08T16:21:22.852Z,15.30
2022-12-08T16:23:44.627Z,18.47
2022-12-08T16:27:21.913Z,16.07
2022-12-08T16:29:17.984Z,17.27
2022-12-08T16:31:45.123Z,18.20
2022-12-08T16:34:12.239Z,17.87
2022-12-08T16:36:39.373Z,15.60
2022-12-08T16:39:06.726Z,16.20
2022-12-08T16:41:52.051Z,15.07
2022-12-08T16:44:18.998Z,15.83
2022-12-08T16:46:45.936Z,14.03
2022-12-08T16:49:15.476Z,13.00
2022-12-08T16:51:43.751Z,16.00
2022-12-08T16:54:11.144Z,14.90
2022-12-08T16:56:38.290Z,12.27
2022-12-08T16:59:05.403Z,15.00
2022-12-08T17:01:32.983Z,13.90
2022-12-08T17:06:50.586Z,14.77
2022-12-08T17:09:17.531Z,12.93
2022-12-08T17:11:45.053Z,14.67
2022-12-08T17:14:13.306Z,14.37
2022-12-08T17:16:40.788Z,12.53
2022-12-08T17:19:07.886Z,14.70
2022-12-08T17:21:34.966Z,13.13
2022-12-08T17:24:01.960Z,11.27
2022-12-08T17:26:28.863Z,12.97
2022-12-08T17:29:00.885Z,11.87
2022-12-08T17:31:30.860Z,13.67
2022-12-08T17:34:04.186Z,15.07
2022-12-08T17:36:31.852Z,12.70
2022-12-08T17:39:00.762Z,14.00
2022-12-08T17:41:28.503Z,12.63
2022-12-08T17:43:55.745Z,15.63
2022-12-08T17:46:23.338Z,11.63
2022-12-08T17:48:50.491Z,10.20
2022-12-08T17:51:17.564Z,10.37
2022-12-08T17:53:44.784Z,9.40
2022-12-08T17:56:21.140Z,13.67
2022-12-08T17:58:53.989Z,9.60
2022-12-08T18:01:23.001Z,10.30
2022-12-08T18:03:50.212Z,8.73
2022-12-08T18:06:17.702Z,8.63
2022-12-08T18:08:44.984Z,10.43
2022-12-08T18:11:18.693Z,7.03
2022-12-08T18:13:50.158Z,7.97
2022-12-08T18:16:19.241Z,8.97
2022-12-08T18:18:46.347Z,8.77
2022-12-08T18:21:15.467Z,9.20
2022-12-08T18:23:47.113Z,10.27
2022-12-08T18:26:15.512Z,12.57
2022-12-08T18:28:43.179Z,16.30
2022-12-08T18:31:17.551Z,19.00
2022-12-08T18:33:46.835Z,18.63
2022-12-08T18:36:19.582Z,16.50
2022-12-08T18:38:47.214Z,17.10
2022-12-08T18:41:23.477Z,15.70
2022-12-08T18:43:50.699Z,15.90
2022-12-08T18:46:17.656Z,14.17
2022-12-08T18:48:48.899Z,15.50
2022-12-08T18:51:24.194Z,13.20
2022-12-08T18:53:52.547Z,14.50
2022-12-08T18:56:34.497Z,13.17
2022-12-08T18:59:06.107Z,13.07
2022-12-08T19:01:36.495Z,12.10
2022-12-08T19:06:54.212Z,10.93
2022-12-08T19:09:22.550Z,13.60
2022-12-08T19:11:49.570Z,11.93
2022-12-08T19:14:16.635Z,15.63
2022-12-08T19:16:43.628Z,14.13
2022-12-08T19:19:10.596Z,12.10
2022-12-08T19:21:44.612Z,10.20
2022-12-08T19:24:13.279Z,10.87
2022-12-08T19:26:40.301Z,11.93
2022-12-08T19:29:07.436Z,10.87
2022-12-08T19:31:34.507Z,13.37
2022-12-08T19:34:01.617Z,14.63
2022-12-08T19:36:35.192Z,12.33
2022-12-08T19:39:22.540Z,12.23
2022-12-08T19:42:09.505Z,12.50
2022-12-08T19:44:54.529Z,10.07
2022-12-08T19:47:25.058Z,9.33
2022-12-08T19:49:54.830Z,11.60
2022-12-08T19:52:22.383Z,9.27
2022-12-08T19:54:49.436Z,9.70
2022-12-08T19:57:16.401Z,8.60
2022-12-08T19:59:43.452Z,8.83
2022-12-08T20:02:11.121Z,9.70
2022-12-08T20:04:38.146Z,12.23
2022-12-08T20:07:05.117Z,7.53
2022-12-08T20:09:32.254Z,7.50
2022-12-08T20:11:59.191Z,9.50
2022-12-08T20:14:26.182Z,9.40
2022-12-08T20:16:53.280Z,9.30
2022-12-08T20:19:20.339Z,10.20
2022-12-08T20:21:47.466Z,9.60
2022-12-08T20:24:14.385Z,10.03
2022-12-08T20:26:41.410Z,12.43
2022-12-08T20:29:08.436Z,13.10
2022-12-08T20:31:35.421Z,13.53
2022-12-08T20:34:02.607Z,10.30
2022-12-08T20:36:30.093Z,10.07
2022-12-08T20:38:58.040Z,11.10
2022-12-08T20:41:25.004Z,10.80
2022-12-08T20:43:52.569Z,10.53
2022-12-08T20:46:21.245Z,9.43
2022-12-08T20:48:48.802Z,8.57
2022-12-08T20:51:19.286Z,10.13
2022-12-08T20:53:47.455Z,10.07
2022-12-08T20:56:20.544Z,20.57
2022-12-08T20:58:48.606Z,13.87
2022-12-08T21:01:19.657Z,9.77
2022-12-08T21:03:48.363Z,10.33
2022-12-08T21:06:16.349Z,14.30
2022-12-08T21:08:43.512Z,16.57
2022-12-08T21:11:10.921Z,17.57
2022-12-08T21:13:39.084Z,17.20
2022-12-08T21:16:09.290Z,22.90
2022-12-08T21:18:39.608Z,21.90
2022-12-08T21:21:11.613Z,19.50
2022-12-08T21:23:39.657Z,19.87
2022-12-08T21:26:16.949Z,23.30
2022-12-08T21:28:43.907Z,22.87
2022-12-08T21:31:15.982Z,27.70
2022-12-08T21:33:45.588Z,27.00
2022-12-08T21:36:16.173Z,26.30
2022-12-08T21:38:43.998Z,30.93
2022-12-08T21:41:14.917Z,26.47
2022-12-08T21:43:42.832Z,26.00
2022-12-08T21:46:19.134Z,23.90
2022-12-08T21:48:46.582Z,21.30
2022-12-08T21:51:13.667Z,20.27
2022-12-08T21:53:40.753Z,24.93
2022-12-08T21:56:11.121Z,22.70
2022-12-08T21:58:39.829Z,20.90
2022-12-08T22:01:09.638Z,24.93
2022-12-08T22:03:38.788Z,19.80
2022-12-08T22:06:13.147Z,23.47
2022-12-08T22:08:41.258Z,28.93
2022-12-08T22:11:10.013Z,31.37
2022-12-08T22:13:39.455Z,27.60
2022-12-08T22:16:10.117Z,25.47
2022-12-08T22:18:37.756Z,26.97
2022-12-08T22:21:15.010Z,27.23
2022-12-08T22:23:42.118Z,25.93
2022-12-08T22:26:10.260Z,26.53
2022-12-08T22:28:40.339Z,24.53
2022-12-08T22:31:20.851Z,25.73
2022-12-08T22:33:49.469Z,27.47
2022-12-08T22:36:23.020Z,25.20
2022-12-08T22:38:51.587Z,25.80
2022-12-08T22:41:19.426Z,23.80
2022-12-08T22:43:47.937Z,26.97
2022-12-08T22:46:19.206Z,25.57
2022-12-08T22:48:46.492Z,26.10
2022-12-08T22:51:14.012Z,19.73
2022-12-08T22:53:41.850Z,23.67
2022-12-08T22:56:11.800Z,23.30
2022-12-08T22:58:40.367Z,27.37
2022-12-08T23:01:07.970Z,18.40
2022-12-08T23:03:35.596Z,17.87
2022-12-08T23:06:03.004Z,19.53
2022-12-08T23:08:30.112Z,17.30
2022-12-08T23:10:58.070Z,18.37
2022-12-08T23:13:25.052Z,19.47
2022-12-08T23:15:51.987Z,14.57
2022-12-08T23:18:19.451Z,16.00
2022-12-08T23:20:47.638Z,16.47
2022-12-08T23:23:15.569Z,16.13
2022-12-08T23:25:43.865Z,16.50
2022-12-08T23:28:11.716Z,11.87
2022-12-08T23:30:42.333Z,11.60
2022-12-08T23:33:09.427Z,13.77
2022-12-08T23:35:36.492Z,14.07
2022-12-08T23:38:03.764Z,12.47
2022-12-08T23:40:31.085Z,13.73
2022-12-08T23:42:58.212Z,11.77
2022-12-08T23:45:25.714Z,11.17
2022-12-08T23:47:52.813Z,14.20
2022-12-08T23:50:19.824Z,14.77
2022-12-08T23:52:46.807Z,16.57
2022-12-08T23:55:13.708Z,15.30
2022-12-08T23:57:40.727Z,16.30
